createdAt,value
2023-02-05T00:02:29.285Z,4.47
2023-02-05T00:07:30.612Z,4.13
2023-02-05T00:12:32.542Z,3.97
2023-02-05T00:17:36.023Z,3.92
2023-02-05T00:22:37.325Z,5.47
2023-02-05T00:27:38.706Z,4.32
2023-02-05T00:32:40.073Z,4.90
2023-02-05T00:37:41.424Z,3.47
2023-02-05T00:42:42.844Z,3.17
2023-02-05T00:47:44.165Z,2.53
2023-02-05T00:52:45.488Z,3.95
2023-02-05T00:57:46.872Z,2.90
2023-02-05T01:02:48.268Z,2.72
2023-02-05T01:07:50.057Z,3.35
2023-02-05T01:12:51.668Z,3.53
2023-02-05T01:17:53.002Z,3.15
2023-02-05T01:22:55.152Z,4.03
2023-02-05T01:27:56.547Z,3.45
2023-02-05T01:32:57.908Z,4.07
2023-02-05T01:37:59.252Z,3.60
2023-02-05T01:43:00.556Z,3.65
2023-02-05T01:48:03.913Z,3.15
2023-02-05T01:53:08.676Z,3.90
2023-02-05T01:58:11.201Z,3.15
2023-02-05T02:03:14.485Z,3.03
2023-02-05T02:08:15.942Z,3.47
2023-02-05T02:13:20.396Z,2.80
2023-02-05T02:18:28.374Z,3.22
2023-02-05T02:23:45.117Z,4.03
2023-02-05T02:28:51.500Z,3.40
2023-02-05T02:34:11.216Z,3.35
2023-02-05T02:39:22.071Z,3.20
2023-02-05T02:44:32.635Z,3.90
2023-02-05T02:49:39.168Z,3.60
2023-02-05T02:54:43.493Z,3.30
2023-02-05T02:59:48.409Z,4.57
2023-02-05T03:04:57.204Z,4.60
2023-02-05T03:10:07.542Z,4.00
2023-02-05T03:15:10.053Z,3.83
2023-02-05T03:20:16.957Z,3.13
2023-02-05T03:25:21.188Z,3.20
2023-02-05T03:30:29.545Z,3.80
2023-02-05T03:35:44.415Z,3.10
2023-02-05T03:40:55.348Z,3.35
2023-02-05T03:46:48.682Z,3.50
2023-02-05T03:51:58.112Z,3.33
2023-02-05T03:57:18.428Z,3.45
2023-02-05T04:02:22.081Z,3.28
2023-02-05T04:07:23.483Z,3.50
2023-02-05T04:12:24.810Z,3.22
2023-02-05T04:17:26.162Z,3.28
2023-02-05T04:22:27.485Z,3.58
2023-02-05T04:27:28.888Z,3.22
2023-02-05T04:32:30.217Z,3.63
2023-02-05T04:37:31.580Z,3.95
2023-02-05T04:42:32.936Z,4.63
2023-02-05T04:47:34.731Z,3.50
2023-02-05T04:52:36.246Z,3.90
2023-02-05T04:57:37.553Z,3.58
2023-02-05T05:02:38.934Z,2.92
2023-02-05T05:07:40.555Z,3.13
2023-02-05T05:12:41.865Z,4.25
2023-02-05T05:17:43.182Z,3.72
2023-02-05T05:22:44.506Z,3.17
2023-02-05T05:27:45.840Z,3.30
2023-02-05T05:32:47.176Z,3.38
2023-02-05T05:37:48.566Z,3.55
2023-02-05T05:43:08.540Z,3.17
2023-02-05T05:48:09.893Z,3.90
2023-02-05T05:53:11.193Z,3.20
2023-02-05T05:58:12.842Z,3.20
2023-02-05T06:03:14.207Z,3.85
2023-02-05T06:08:16.245Z,3.67
2023-02-05T06:13:17.596Z,4.22
2023-02-05T06:18:19.099Z,4.28
2023-02-05T06:23:20.435Z,4.38
2023-02-05T06:28:21.772Z,4.57
2023-02-05T06:33:23.155Z,4.30
2023-02-05T06:38:24.535Z,4.65
2023-02-05T06:43:25.925Z,5.85
2023-02-05T06:48:27.224Z,4.75
2023-02-05T06:53:28.528Z,5.63
2023-02-05T06:58:29.887Z,5.38
2023-02-05T07:03:31.262Z,5.70
2023-02-05T07:08:32.950Z,4.93
2023-02-05T07:13:34.404Z,5.90
2023-02-05T07:18:35.806Z,5.07
2023-02-05T07:23:37.229Z,5.43
2023-02-05T07:28:39.114Z,5.60
2023-02-05T07:33:40.880Z,6.60
2023-02-05T07:38:43.581Z,6.20
2023-02-05T07:43:45.008Z,5.63
2023-02-05T07:48:46.351Z,6.13
2023-02-05T07:53:47.809Z,6.18
2023-02-05T07:58:49.196Z,5.40
2023-02-05T08:03:50.671Z,7.70
2023-02-05T08:08:52.256Z,7.25
2023-02-05T08:13:53.579Z,6.55
2023-02-05T08:18:54.897Z,6.18
2023-02-05T08:23:58.387Z,6.90
2023-02-05T08:28:59.834Z,8.35
2023-02-05T08:34:01.713Z,7.63
2023-02-05T08:39:03.982Z,6.63
2023-02-05T08:44:05.549Z,6.70
2023-02-05T08:49:06.883Z,6.75
2023-02-05T08:54:12.870Z,8.88
2023-02-05T08:59:14.300Z,11.07
2023-02-05T09:04:21.993Z,11.32
2023-02-05T09:14:24.623Z,12.98
2023-02-05T09:19:25.935Z,13.18
2023-02-05T09:24:27.424Z,12.65
2023-02-05T09:29:29.720Z,13.55
2023-02-05T09:34:32.252Z,12.60
2023-02-05T09:45:07.549Z,14.30
2023-02-05T09:50:31.703Z,16.02
2023-02-05T09:55:37.330Z,14.07
2023-02-05T12:58:10.622Z,14.40
2023-02-05T13:40:24.947Z,9.90
2023-02-05T13:45:45.056Z,11.13
2023-02-05T14:17:28.927Z,9.27
2023-02-05T14:22:42.525Z,10.20
2023-02-05T14:27:49.107Z,10.00
2023-02-05T14:32:50.389Z,9.30
2023-02-05T14:37:54.140Z,9.52
2023-02-05T14:43:15.910Z,9.43
2023-02-05T14:48:24.776Z,9.43
2023-02-05T14:53:26.660Z,9.88
2023-02-05T14:58:44.822Z,9.20
2023-02-05T15:03:46.266Z,7.45
2023-02-05T15:09:13.529Z,8.15
2023-02-05T15:14:41.322Z,8.77
2023-02-05T15:19:48.417Z,8.38
2023-02-05T15:24:53.467Z,8.05
2023-02-05T15:29:57.426Z,8.38
2023-02-05T15:35:04.871Z,8.35
2023-02-05T15:40:19.978Z,7.95
2023-02-05T15:45:27.479Z,7.43
2023-02-05T15:50:30.738Z,7.90
2023-02-05T15:55:33.482Z,8.07
2023-02-05T16:00:39.649Z,7.63
2023-02-05T16:05:51.810Z,8.07
2023-02-05T16:10:58.530Z,9.27
2023-02-05T16:16:05.861Z,8.33
2023-02-05T16:21:20.531Z,7.78
2023-02-05T16:26:36.510Z,7.30
2023-02-05T16:31:38.082Z,6.85
2023-02-05T16:36:43.126Z,6.30
2023-02-05T16:41:45.034Z,6.63
2023-02-05T16:47:06.253Z,6.57
2023-02-05T16:52:28.163Z,7.00
2023-02-05T16:57:36.962Z,7.90
2023-02-05T17:02:41.518Z,7.85
2023-02-05T17:07:42.918Z,8.30
2023-02-05T17:12:54.354Z,9.23
2023-02-05T17:18:29.038Z,9.43
2023-02-05T17:23:30.382Z,7.82
2023-02-05T17:28:34.282Z,7.95
2023-02-05T17:33:35.603Z,8.18
2023-02-05T17:38:36.968Z,8.68
2023-02-05T17:43:41.184Z,8.45
2023-02-05T17:48:44.448Z,9.30
2023-02-05T17:53:45.951Z,9.25
2023-02-05T17:58:48.644Z,8.02
2023-02-05T18:03:50.047Z,9.15
2023-02-05T18:08:51.386Z,9.65
2023-02-05T18:13:52.757Z,9.63
2023-02-05T18:18:54.118Z,10.07
2023-02-05T18:23:55.471Z,10.13
2023-02-05T18:28:56.831Z,9.40
2023-02-05T18:33:58.199Z,12.18
2023-02-05T18:38:59.706Z,15.75
2023-02-05T18:44:01.080Z,20.48
2023-02-05T18:49:02.458Z,11.52
2023-02-05T18:54:06.515Z,11.35
2023-02-05T18:59:09.540Z,8.88
2023-02-05T19:04:13.588Z,11.07
2023-02-05T19:09:15.016Z,11.68
2023-02-05T19:14:18.186Z,10.23
2023-02-05T19:19:23.085Z,11.50
2023-02-05T19:24:24.449Z,10.30
2023-02-05T19:29:27.032Z,9.82
2023-02-05T19:34:28.869Z,9.00
2023-02-05T19:39:30.222Z,8.57
2023-02-05T19:44:32.125Z,8.70
2023-02-05T19:49:33.528Z,8.27
2023-02-05T19:54:35.598Z,7.05
2023-02-05T19:59:37.371Z,6.20
2023-02-05T20:04:40.580Z,7.43
2023-02-05T20:09:42.066Z,7.88
2023-02-05T20:14:43.438Z,7.10
2023-02-05T20:19:44.793Z,7.50
2023-02-05T20:24:46.151Z,7.28
2023-02-05T20:30:05.885Z,7.35
2023-02-05T20:35:07.515Z,7.38
2023-02-05T20:40:09.429Z,7.75
2023-02-05T20:45:10.844Z,8.63
2023-02-05T20:50:12.201Z,8.73
2023-02-05T20:55:13.844Z,8.88
2023-02-05T21:00:15.292Z,8.25
2023-02-05T21:05:16.653Z,8.25
2023-02-05T21:10:19.306Z,8.98
2023-02-05T21:15:20.648Z,8.75
2023-02-05T21:20:21.985Z,8.40
2023-02-05T21:25:23.308Z,10.35
2023-02-05T21:30:24.701Z,9.63
2023-02-05T21:35:27.302Z,9.85
2023-02-05T21:40:28.597Z,9.73
2023-02-05T21:45:30.048Z,9.57
2023-02-05T21:50:31.469Z,8.98
2023-02-05T21:55:33.712Z,10.85
2023-02-05T22:00:35.306Z,9.82
2023-02-05T22:05:36.834Z,9.85
2023-02-05T22:10:38.178Z,9.27
2023-02-05T22:15:39.555Z,10.25
2023-02-05T22:20:40.880Z,9.82
2023-02-05T22:25:46.790Z,9.80
2023-02-05T22:30:48.258Z,10.50
2023-02-05T22:35:52.631Z,10.93
2023-02-05T22:40:53.958Z,9.82
2023-02-05T22:45:55.351Z,10.30
2023-02-05T22:50:56.757Z,9.98
2023-02-05T22:56:07.581Z,9.85
2023-02-05T23:01:10.692Z,11.07
2023-02-05T23:06:15.026Z,12.23
2023-02-05T23:11:16.572Z,11.65
2023-02-05T23:16:24.036Z,11.27
2023-02-05T23:21:27.742Z,11.52
2023-02-05T23:26:33.174Z,12.48
2023-02-05T23:31:35.194Z,10.95
2023-02-05T23:36:36.716Z,11.88
2023-02-05T23:41:39.540Z,10.93
2023-02-05T23:46:43.101Z,11.45
2023-02-05T23:51:45.444Z,10.82
2023-02-05T23:56:47.104Z,10.65
